Lake Worth, FL

8:45 AM EST on December 28, 2014 (GMT -0500)
Venetian Isles | Change Station
CLOSE
Current Station
Personal Weather Station
Location: Boynton Beach, FL
Elevation: 20 ft
Nearby Weather Stations

Elev 20 ft 26.55 °N, 80.18 °W | Updated 15 seconds ago

Partly Cloudy
Partly Cloudy
68.6 °F
Feels Like 68.6 °F
N
0.0
Wind Variable Wind from SE
Gusts 0.0 mph

Today
High -- | Low -- °F
--% Chance of Precip.
Yesterday
High -- | Low -- °F
Precip. -- in
7:07 AM 5:36 PM
Waxing Crescent, 48% visible
Pressure 30.16 in
Visibility 8.0 miles
Clouds Scattered Clouds 2700 ft
Mostly Cloudy 25000 ft
Dew Point 65 °F
Humidity 87%
Rainfall 0.00 in
Snow Depth Not available.
UV 0 out of 12
Pollen 4.90 out of 12
Air Quality Not available.
Flu Activity Not available.
METAR KPBI 281253Z 00000KT 8SM MIFG SCT027 BKN250 19/19 A3016 RMK AO2 SLP211 T01940189

More Conditions Fewer Conditions

Pressure 30.16 in
Visibility 8.0 miles
Clouds Scattered Clouds 2700 ft
Mostly Cloudy 25000 ft
Dew Point 65 °F
Humidity 87%
Rainfall 0.00 in
Snow Depth Not available.
UV 0 out of 12
Pollen 4.90 out of 12
Air Quality Not available.
Flu Activity Not available.
METAR KPBI 281253Z 00000KT 8SM MIFG SCT027 BKN250 19/19 A3016 RMK AO2 SLP211 T01940189

More Conditions Fewer Conditions

10-Day Weather Forecast

Almanac

Astronomy

Dec. 28, 2014 Rise Set
Actual Time
Civil Twilight
Nautical Twilight
Astronomical Twilight
Moon
Length of Visible Light
Length of Day
Tomorrow will be .
, % of the Moon is Illuminated

Today's Extremes

State Highs State Lows

Community

WunderPhotos

Upload Photos

1,781,262 photos uploaded!

WunderBlogs® & News

Nearby

Air Quality

  Air Quality AQ Index Pollutant
Not available.

Snow Depth

Station Depth Elevation

Earthquake Activity

City Distance Mag. Time & Date
Minimum magnitude displayed is 2.5.

Coastal Water Temperatures

Place Temperature

Nearby Weather Stations